createdAt,value
2022-10-02T00:00:50.544Z,92.89
2022-10-02T00:02:52.281Z,92.72
2022-10-02T00:04:53.298Z,92.83
2022-10-02T00:06:55.117Z,92.9
2022-10-02T00:08:56.539Z,93
2022-10-02T00:10:58.066Z,92.93
2022-10-02T00:12:59.970Z,93.09
2022-10-02T00:15:01.401Z,93.14
2022-10-02T00:17:02.686Z,93.09
2022-10-02T00:19:04.366Z,92.93
2022-10-02T00:21:06.085Z,92.93
2022-10-02T00:23:07.258Z,92.89
2022-10-02T00:27:09.910Z,92.67
2022-10-02T00:29:11.784Z,92.8
2022-10-02T00:31:13.043Z,92.73
2022-10-02T00:33:14.938Z,92.57
2022-10-02T00:35:15.949Z,92.46
2022-10-02T00:37:17.042Z,92.59
2022-10-02T00:39:18.647Z,92.61
2022-10-02T00:41:20.100Z,92.59
2022-10-02T00:43:21.087Z,92.38
2022-10-02T00:45:22.200Z,92.66
2022-10-02T00:47:23.833Z,92.93
2022-10-02T00:49:25.318Z,92.67
2022-10-02T00:51:26.915Z,92.78
2022-10-02T00:53:28.591Z,93.04
2022-10-02T00:55:30.450Z,92.81
2022-10-02T00:57:31.513Z,92.8
2022-10-02T00:59:33.377Z,92.51
2022-10-02T01:01:34.284Z,92.57
2022-10-02T01:03:35.788Z,92.69
2022-10-02T01:05:37.138Z,92.87
2022-10-02T01:07:38.543Z,92.39
2022-10-02T01:09:40.433Z,92.49
2022-10-02T01:11:41.492Z,92.68
2022-10-02T01:13:43.337Z,92.73
2022-10-02T01:15:44.255Z,92.63
2022-10-02T01:17:45.307Z,92.68
2022-10-02T01:19:47.016Z,92.55
2022-10-02T01:21:48.874Z,92.53
2022-10-02T01:23:50.274Z,92.63
2022-10-02T01:25:51.563Z,92.59
2022-10-02T01:29:53.658Z,92.4
2022-10-02T01:31:54.667Z,92.37
2022-10-02T01:35:57.850Z,92.64
2022-10-02T01:40:00.430Z,92.79
2022-10-02T01:42:02.021Z,92.95
2022-10-02T01:44:03.761Z,92.88
2022-10-02T01:46:05.377Z,92.63
2022-10-02T01:48:06.189Z,92.78
2022-10-02T01:50:07.419Z,92.98
2022-10-02T01:52:08.665Z,92.84
2022-10-02T01:54:10.401Z,92.91
2022-10-02T01:56:11.362Z,93.04
2022-10-02T01:58:12.405Z,92.96
2022-10-02T02:00:13.771Z,92.82
2022-10-02T02:02:15.135Z,92.91
2022-10-02T02:04:16.383Z,93.04
2022-10-02T02:06:18.036Z,93.13
2022-10-02T02:08:18.958Z,93.04
2022-10-02T02:10:20.276Z,92.88
2022-10-02T02:12:21.662Z,92.93
2022-10-02T02:14:22.701Z,92.84
2022-10-02T02:16:23.894Z,92.89
2022-10-02T02:18:25.297Z,93.04
2022-10-02T02:22:27.296Z,92.61
2022-10-02T02:24:29.100Z,92.68
2022-10-02T02:26:30.018Z,92.26
2022-10-02T02:28:31.818Z,92.28
2022-10-02T02:30:33.471Z,92.39
2022-10-02T02:32:34.594Z,92.13
2022-10-02T02:34:35.598Z,92.44
2022-10-02T02:36:36.855Z,92.27
2022-10-02T02:38:37.918Z,92.44
2022-10-02T02:40:38.950Z,92.59
2022-10-02T02:42:40.243Z,92.52
2022-10-02T02:44:42.136Z,92.06
2022-10-02T02:46:43.656Z,92.31
2022-10-02T02:48:44.851Z,92.39
2022-10-02T02:50:46.657Z,92.24
2022-10-02T02:52:47.588Z,92.09
2022-10-02T02:54:48.698Z,92.14
2022-10-02T02:56:50.517Z,92.08
2022-10-02T02:58:52.229Z,91.93
2022-10-02T03:00:53.225Z,91.11
2022-10-02T03:02:54.723Z,91.09
2022-10-02T03:06:58.023Z,91.5
2022-10-02T03:11:00.371Z,91.42
2022-10-02T03:13:01.682Z,91.61
2022-10-02T03:15:03.365Z,91.96
2022-10-02T03:17:04.361Z,91.95
2022-10-02T03:21:07.045Z,91.68
2022-10-02T03:23:09.910Z,91.71
2022-10-02T03:27:12.183Z,91.68
2022-10-02T03:29:13.261Z,91.78
2022-10-02T03:31:15.066Z,92.06
2022-10-02T03:33:16.202Z,92.14
2022-10-02T03:35:18.004Z,92.24
2022-10-02T03:37:19.766Z,92.22
2022-10-02T03:39:25.027Z,92.36
2022-10-02T03:41:22.427Z,92.42
2022-10-02T03:43:23.754Z,92.64
2022-10-02T03:45:46.550Z,92.61
2022-10-02T03:47:26.305Z,92.64
2022-10-02T03:49:27.997Z,92.49
2022-10-02T03:51:29.213Z,92.71
2022-10-02T03:53:30.116Z,92.47
2022-10-02T03:55:31.587Z,92.63
2022-10-02T03:59:34.229Z,92.63
2022-10-02T04:03:36.827Z,93.02
2022-10-02T04:05:38.611Z,92.91
2022-10-02T04:07:40.423Z,92.86
2022-10-02T04:09:41.610Z,93.17
2022-10-02T04:11:42.980Z,93.44
2022-10-02T04:13:44.148Z,93.49
2022-10-02T04:15:45.495Z,93.55
2022-10-02T04:17:47.158Z,93.51
2022-10-02T04:19:48.096Z,93.84
2022-10-02T04:21:49.220Z,94.12
2022-10-02T04:23:50.810Z,94.47
2022-10-02T04:25:52.556Z,94.38
2022-10-02T04:27:54.424Z,94.29
2022-10-02T04:29:55.853Z,94.31
2022-10-02T04:31:56.782Z,94.21
2022-10-02T04:33:57.786Z,93.99
2022-10-02T04:35:59.191Z,94.08
2022-10-02T04:38:01.070Z,93.88
2022-10-02T04:40:02.881Z,93.96
2022-10-02T04:42:04.364Z,93.82
2022-10-02T04:46:07.118Z,93.72
2022-10-02T04:48:08.799Z,93.7
2022-10-02T04:52:11.581Z,93.62
2022-10-02T04:54:12.687Z,93.55
2022-10-02T04:56:13.717Z,93.64
2022-10-02T04:58:15.366Z,93.22
2022-10-02T05:00:17.075Z,93.57
2022-10-02T05:04:20.411Z,93.81
2022-10-02T05:06:22.137Z,93.58
2022-10-02T05:08:23.855Z,93.68
2022-10-02T05:10:25.420Z,93.82
2022-10-02T05:14:28.705Z,93.46
2022-10-02T05:16:29.898Z,93.71
2022-10-02T05:18:30.827Z,93.81
2022-10-02T05:20:32.218Z,93.79
2022-10-02T05:22:33.934Z,93.89
2022-10-02T05:24:35.331Z,93.94
2022-10-02T05:26:37.125Z,94.1
2022-10-02T05:28:38.145Z,94.16
2022-10-02T05:30:39.477Z,94.29
2022-10-02T05:32:40.817Z,94.47
2022-10-02T05:34:42.085Z,94.43
2022-10-02T05:36:43.890Z,94.49
2022-10-02T05:38:45.531Z,94.75
2022-10-02T05:40:47.202Z,94.87
2022-10-02T05:42:48.933Z,94.73
2022-10-02T05:44:50.594Z,94.47
2022-10-02T05:46:52.492Z,94.38
2022-10-02T05:48:53.729Z,94.17
2022-10-02T05:50:55.515Z,94.37
2022-10-02T05:52:57.232Z,94.38
2022-10-02T05:56:59.323Z,94.29
2022-10-02T05:59:00.754Z,94.18
2022-10-02T06:03:04.018Z,94.25
2022-10-02T06:05:05.254Z,94
2022-10-02T06:07:06.913Z,93.89
2022-10-02T06:09:08.116Z,94.2
2022-10-02T06:13:10.675Z,93.91
2022-10-02T06:15:12.321Z,94.24
2022-10-02T06:17:13.491Z,93.89
2022-10-02T06:19:14.540Z,94.03
2022-10-02T06:21:15.980Z,94.16
2022-10-02T06:23:17.782Z,94.23
2022-10-02T06:25:19.311Z,94.05
2022-10-02T06:27:20.529Z,93.95
2022-10-02T06:29:26.355Z,93.71
2022-10-02T06:31:24.007Z,93.64
2022-10-02T06:33:25.320Z,93.6
2022-10-02T06:35:26.764Z,93.8
2022-10-02T06:37:28.136Z,93.55
2022-10-02T06:39:29.583Z,93.79
2022-10-02T06:41:30.770Z,94.12
2022-10-02T06:44:16.001Z,94.24
2022-10-02T06:46:16.912Z,94.12
2022-10-02T06:50:19.609Z,94.13
2022-10-02T06:52:20.727Z,94.11
2022-10-02T06:54:22.414Z,93.93
2022-10-02T06:56:23.349Z,94.3
2022-10-02T06:58:24.518Z,94.56
2022-10-02T07:00:26.032Z,94.42
2022-10-02T07:02:27.052Z,94.48
2022-10-02T07:04:28.166Z,94.49
2022-10-02T07:06:29.262Z,94.39
2022-10-02T07:08:30.079Z,94.64
2022-10-02T07:10:31.604Z,94.88
2022-10-02T07:12:32.594Z,94.8
2022-10-02T07:14:34.109Z,94.86
2022-10-02T07:16:36.076Z,94.89
2022-10-02T07:18:36.769Z,94.92
2022-10-02T07:22:44.784Z,94.79
2022-10-02T07:24:40.746Z,95.04
2022-10-02T07:26:42.101Z,95.11
2022-10-02T07:28:43.789Z,95.21
2022-10-02T07:32:46.734Z,95.38
2022-10-02T07:34:48.557Z,95.5
2022-10-02T07:36:50.140Z,95.64
2022-10-02T07:38:52.066Z,95.78
2022-10-02T07:40:56.005Z,95.8
2022-10-02T07:42:54.469Z,95.83
2022-10-02T07:44:56.297Z,95.94
2022-10-02T07:46:58.043Z,95.95
2022-10-02T07:48:59.824Z,96.11
2022-10-02T07:51:01.231Z,96.18
2022-10-02T07:53:02.977Z,96.3
2022-10-02T07:55:04.524Z,96.15
2022-10-02T07:57:09.727Z,96.14
2022-10-02T07:59:07.497Z,96.19
2022-10-02T08:01:09.203Z,96.24
2022-10-02T08:05:11.543Z,96.22
2022-10-02T08:07:12.478Z,96.18
2022-10-02T08:09:14.327Z,96.18
2022-10-02T08:11:15.944Z,96.16
2022-10-02T08:15:18.140Z,96.19
2022-10-02T08:17:19.777Z,96.26
2022-10-02T08:19:21.637Z,96.36
2022-10-02T08:21:22.551Z,96.44
2022-10-02T08:23:24.054Z,96.43
2022-10-02T08:25:25.698Z,96.49
2022-10-02T08:27:27.145Z,96.61
2022-10-02T08:29:28.200Z,96.7
2022-10-02T08:31:29.281Z,96.71
2022-10-02T08:33:30.466Z,96.76
2022-10-02T08:35:32.185Z,96.8
2022-10-02T08:37:33.580Z,96.79
2022-10-02T08:39:35.032Z,96.82
2022-10-02T08:41:36.152Z,96.84
2022-10-02T08:43:37.954Z,96.74
2022-10-02T08:45:39.201Z,96.7
2022-10-02T08:47:40.239Z,96.75
2022-10-02T08:49:41.763Z,96.65
2022-10-02T08:51:43.525Z,96.68
2022-10-02T08:53:44.514Z,96.63
2022-10-02T08:55:45.415Z,96.63
2022-10-02T08:57:47.075Z,96.65
2022-10-02T08:59:48.626Z,96.57
2022-10-02T09:01:50.118Z,96.6
2022-10-02T09:03:51.130Z,96.52
2022-10-02T09:05:52.090Z,96.56
2022-10-02T09:09:54.631Z,96.44
2022-10-02T09:11:55.723Z,96.46
2022-10-02T09:13:56.715Z,96.6
2022-10-02T09:15:58.097Z,96.68
2022-10-02T09:17:59.167Z,96.65
2022-10-02T09:20:00.934Z,96.62
2022-10-02T09:22:02.412Z,96.68
2022-10-02T09:24:04.052Z,96.65
2022-10-02T09:26:05.658Z,96.6
2022-10-02T09:28:06.813Z,96.53
2022-10-02T09:30:08.186Z,96.56
2022-10-02T09:32:09.115Z,96.6
2022-10-02T09:34:10.531Z,96.62
2022-10-02T09:36:12.405Z,96.7
2022-10-02T09:38:13.295Z,96.66
2022-10-02T09:40:14.723Z,96.56
2022-10-02T09:42:15.676Z,96.56
2022-10-02T09:46:18.098Z,96.53
2022-10-02T09:48:19.732Z,96.54
2022-10-02T09:52:22.693Z,96.55
2022-10-02T09:56:25.490Z,96.55
2022-10-02T09:58:26.802Z,96.63
2022-10-02T10:00:27.787Z,96.74
2022-10-02T10:02:29.634Z,96.78
2022-10-02T10:04:47.763Z,96.84
2022-10-02T10:06:32.959Z,96.81
2022-10-02T10:08:34.744Z,96.84
2022-10-02T10:10:36.485Z,96.76
2022-10-02T10:12:37.890Z,96.81
2022-10-02T10:14:38.822Z,96.89
2022-10-02T10:16:40.315Z,96.91
2022-10-02T10:18:42.124Z,96.98
2022-10-02T10:20:43.596Z,97.03
2022-10-02T10:22:45.483Z,97.1
2022-10-02T10:24:47.385Z,97.15
2022-10-02T10:28:50.079Z,97.22
2022-10-02T10:30:51.657Z,97.34
2022-10-02T10:32:52.981Z,97.22
2022-10-02T10:34:54.488Z,97.24
2022-10-02T10:38:56.655Z,97.26
2022-10-02T10:40:58.201Z,97.3
2022-10-02T10:45:00.956Z,97.22
2022-10-02T10:47:02.234Z,97.24
2022-10-02T10:49:03.212Z,97.24
2022-10-02T10:51:04.514Z,97.32
2022-10-02T10:55:06.562Z,97.35
2022-10-02T10:57:07.997Z,97.3
2022-10-02T10:59:09.390Z,97.32
2022-10-02T11:01:11.224Z,97.37
2022-10-02T11:03:12.811Z,97.32
2022-10-02T11:05:14.066Z,97.39
2022-10-02T11:07:15.456Z,97.41
2022-10-02T11:09:16.662Z,97.5
2022-10-02T11:11:18.382Z,97.45
2022-10-02T11:13:19.678Z,97.39
2022-10-02T11:15:20.951Z,97.41
2022-10-02T11:17:22.451Z,97.45
2022-10-02T11:19:23.947Z,97.47
2022-10-02T11:21:25.759Z,97.52
2022-10-02T11:23:27.188Z,97.52
2022-10-02T11:27:29.342Z,97.5
2022-10-02T11:29:30.796Z,97.37
2022-10-02T11:31:31.742Z,97.42
2022-10-02T11:33:33.260Z,97.45
2022-10-02T11:37:35.967Z,97.28
2022-10-02T11:39:37.530Z,97.25
2022-10-02T11:41:39.597Z,97.26
2022-10-02T11:43:43.864Z,97.26
2022-10-02T11:45:42.094Z,97.3
2022-10-02T11:47:43.121Z,97.38
2022-10-02T11:49:44.623Z,97.43
2022-10-02T11:51:46.253Z,97.47
2022-10-02T11:53:47.557Z,97.44
2022-10-02T11:55:48.707Z,97.41
2022-10-02T11:57:49.672Z,97.46
2022-10-02T11:59:51.396Z,97.39
2022-10-02T12:01:52.575Z,97.27
2022-10-02T12:03:53.502Z,97.17
2022-10-02T12:05:54.853Z,97.17
2022-10-02T12:07:56.328Z,97.1
2022-10-02T12:09:57.688Z,96.98
2022-10-02T12:11:59.326Z,97.06
2022-10-02T12:14:00.544Z,97.01
2022-10-02T12:16:02.249Z,97.05
2022-10-02T12:20:05.481Z,97.28
2022-10-02T12:22:07.236Z,97.32
2022-10-02T12:24:08.827Z,97.42
2022-10-02T12:26:09.848Z,97.36
2022-10-02T12:28:11.176Z,97.42
2022-10-02T12:30:12.102Z,97.44
2022-10-02T12:32:13.542Z,97.47
2022-10-02T12:34:15.295Z,97.34
2022-10-02T12:36:16.643Z,97.38
2022-10-02T12:38:18.179Z,97.44
2022-10-02T12:40:19.108Z,97.35
2022-10-02T12:42:20.906Z,97.27
2022-10-02T12:44:21.959Z,97.27
2022-10-02T12:46:23.190Z,97.31
2022-10-02T12:48:25.050Z,97.17
2022-10-02T12:52:27.497Z,97.28
2022-10-02T12:54:28.850Z,97.01
2022-10-02T12:58:32.102Z,97.06
2022-10-02T13:00:33.512Z,96.93
2022-10-02T13:02:56.493Z,97.08
2022-10-02T13:04:36.455Z,97.16
2022-10-02T13:08:38.682Z,97.06
2022-10-02T13:10:39.609Z,97.1
2022-10-02T13:12:40.552Z,97.06
2022-10-02T13:14:42.060Z,97.05
2022-10-02T13:18:45.067Z,96.97
2022-10-02T13:20:46.881Z,97.04
2022-10-02T13:22:48.131Z,97.1
2022-10-02T13:24:49.404Z,97.14
2022-10-02T13:26:50.953Z,97.22
2022-10-02T13:28:52.598Z,97.24
2022-10-02T13:29:36.365Z,97.28
2022-10-02T13:31:38.262Z,97.34
2022-10-02T13:33:39.427Z,97.44
2022-10-02T13:35:40.715Z,97.34
2022-10-02T13:37:41.940Z,97.38
2022-10-02T13:39:43.606Z,97.38
2022-10-02T13:41:44.938Z,97.42
2022-10-02T13:43:46.157Z,97.44
2022-10-02T13:45:47.736Z,97.48
2022-10-02T13:47:48.622Z,97.55
2022-10-02T13:49:49.639Z,97.61
2022-10-02T13:51:50.903Z,97.64
2022-10-02T13:55:53.249Z,97.65
2022-10-02T13:57:54.165Z,97.68
2022-10-02T13:59:55.819Z,97.72
2022-10-02T14:01:57.618Z,97.58
2022-10-02T14:03:59.451Z,97.69
2022-10-02T14:06:01.091Z,97.66
2022-10-02T14:08:02.265Z,97.57
2022-10-02T14:10:03.854Z,97.63
2022-10-02T14:12:05.695Z,97.68
2022-10-02T14:14:07.309Z,97.71
2022-10-02T14:16:09.225Z,97.73
2022-10-02T14:18:10.713Z,97.66
2022-10-02T14:20:11.945Z,97.69
2022-10-02T14:24:14.304Z,97.72
2022-10-02T14:28:16.312Z,97.53
2022-10-02T14:30:17.325Z,97.57
2022-10-02T14:32:18.561Z,97.49
2022-10-02T14:34:19.986Z,97.48
2022-10-02T14:38:23.153Z,97.44
2022-10-02T14:40:24.762Z,97.44
2022-10-02T14:42:26.278Z,97.39
2022-10-02T14:44:27.478Z,97.39
2022-10-02T14:46:28.691Z,97.37
2022-10-02T14:48:29.943Z,97.32
2022-10-02T14:50:31.527Z,97.33
2022-10-02T14:52:32.744Z,97.27
2022-10-02T14:54:34.046Z,97.27
2022-10-02T14:56:35.012Z,97.24
2022-10-02T14:58:36.784Z,97.19
2022-10-02T15:00:38.188Z,97.25
2022-10-02T15:02:39.346Z,97.25
2022-10-02T15:04:40.791Z,97.25
2022-10-02T15:06:41.680Z,97.3
2022-10-02T15:08:43.017Z,97.29
2022-10-02T15:10:44.393Z,97.32
2022-10-02T15:12:45.834Z,97.33
2022-10-02T15:14:46.919Z,97.36
2022-10-02T15:16:47.996Z,97.29
2022-10-02T15:18:49.619Z,97.25
2022-10-02T15:20:51.365Z,97.34
2022-10-02T15:26:56.034Z,97.41
2022-10-02T15:28:57.196Z,97.39
2022-10-02T15:30:58.026Z,97.45
2022-10-02T15:32:59.537Z,97.47
2022-10-02T15:37:02.197Z,97.45
2022-10-02T15:39:03.591Z,97.4
2022-10-02T15:41:04.660Z,97.38
2022-10-02T15:43:05.985Z,97.4
2022-10-02T15:45:07.159Z,97.32
2022-10-02T15:47:08.388Z,97.28
2022-10-02T15:49:09.414Z,97.2
2022-10-02T15:51:10.650Z,97.11
2022-10-02T15:53:11.672Z,97.18
2022-10-02T15:55:16.052Z,97.16
2022-10-02T15:57:13.835Z,97.1
2022-10-02T15:59:15.391Z,97.19
2022-10-02T16:01:16.672Z,97.22
2022-10-02T16:03:17.791Z,97.28
2022-10-02T16:05:19.409Z,97.35
2022-10-02T16:09:22.689Z,97.5
2022-10-02T16:11:23.642Z,97.55
2022-10-02T16:13:25.257Z,97.59
2022-10-02T16:15:26.807Z,97.58
2022-10-02T16:19:29.905Z,97.63
2022-10-02T16:21:30.867Z,97.64
2022-10-02T16:23:32.420Z,97.58
2022-10-02T16:25:33.336Z,97.6
2022-10-02T16:27:34.667Z,97.63
2022-10-02T16:29:36.360Z,97.63
2022-10-02T16:31:37.598Z,97.65
2022-10-02T16:33:39.445Z,97.61
2022-10-02T16:35:43.632Z,97.6
2022-10-02T16:37:42.268Z,97.61
2022-10-02T16:39:44.161Z,97.59
2022-10-02T16:41:45.193Z,97.58
2022-10-02T16:43:46.580Z,97.48
2022-10-02T16:45:47.766Z,97.43
2022-10-02T16:47:49.198Z,97.39
2022-10-02T16:49:50.602Z,97.36
2022-10-02T16:51:52.411Z,97.35
2022-10-02T16:53:54.196Z,97.35
2022-10-02T16:55:55.834Z,97.35
2022-10-02T16:57:56.890Z,97.27
2022-10-02T17:02:16.816Z,97.16
2022-10-02T17:04:01.771Z,97.19
2022-10-02T17:06:02.810Z,97.24
2022-10-02T17:08:04.240Z,97.22
2022-10-02T17:10:05.387Z,97.22
2022-10-02T17:12:06.821Z,97.13
2022-10-02T17:14:07.823Z,97.07
2022-10-02T17:18:10.114Z,97.01
2022-10-02T17:20:11.524Z,97.02
2022-10-02T17:22:12.833Z,97.03
2022-10-02T17:24:14.254Z,97.09
2022-10-02T17:26:15.309Z,97.08
2022-10-02T17:28:16.640Z,97.09
2022-10-02T17:30:18.053Z,97.08
2022-10-02T17:32:19.435Z,97.08
2022-10-02T17:34:20.709Z,97.07
2022-10-02T17:36:21.766Z,97.17
2022-10-02T17:38:22.985Z,97.18
2022-10-02T17:40:24.049Z,97.23
2022-10-02T17:42:25.635Z,97.24
2022-10-02T17:44:27.353Z,97.31
2022-10-02T17:46:29.228Z,97.33
2022-10-02T17:48:30.735Z,97.33
2022-10-02T17:50:31.992Z,97.32
2022-10-02T17:52:33.188Z,97.34
2022-10-02T17:54:34.117Z,97.35
2022-10-02T17:56:35.706Z,97.38
2022-10-02T18:00:38.435Z,97.31
2022-10-02T18:02:40.089Z,97.35
2022-10-02T18:04:41.985Z,97.38
2022-10-02T18:06:43.059Z,97.46
2022-10-02T18:08:44.552Z,97.47
2022-10-02T18:10:45.807Z,97.47
2022-10-02T18:12:47.035Z,97.45
2022-10-02T18:14:48.437Z,97.51
2022-10-02T18:16:49.902Z,97.57
2022-10-02T18:18:51.334Z,97.63
2022-10-02T18:20:52.656Z,97.66
2022-10-02T18:22:53.666Z,97.72
2022-10-02T18:24:54.604Z,97.8
2022-10-02T18:26:55.890Z,97.9
2022-10-02T18:28:57.198Z,97.92
2022-10-02T18:30:58.190Z,97.97
2022-10-02T18:32:59.555Z,97.97
2022-10-02T18:35:01.449Z,98.03
2022-10-02T18:37:03.176Z,98.06
2022-10-02T18:39:04.634Z,98.13
2022-10-02T18:43:06.972Z,98.11
2022-10-02T18:45:07.880Z,98.21
2022-10-02T18:47:09.737Z,98.23
2022-10-02T18:49:10.961Z,98.28
2022-10-02T18:51:11.964Z,98.31
2022-10-02T18:53:12.939Z,98.32
2022-10-02T18:55:14.566Z,98.44
2022-10-02T18:57:16.195Z,98.47
2022-10-02T18:59:18.069Z,98.52
2022-10-02T19:01:19.111Z,98.51
2022-10-02T19:03:20.071Z,98.48
2022-10-02T19:05:21.636Z,98.5
2022-10-02T19:07:22.840Z,98.59
2022-10-02T19:09:24.554Z,98.66
2022-10-02T19:11:26.445Z,98.62
2022-10-02T19:13:27.469Z,98.57
2022-10-02T19:15:29.219Z,98.53
2022-10-02T19:17:30.732Z,98.55
2022-10-02T19:19:31.939Z,98.58
2022-10-02T19:21:33.874Z,98.57
2022-10-02T19:23:34.696Z,98.61
2022-10-02T19:25:36.444Z,98.6
2022-10-02T19:27:37.456Z,98.62
2022-10-02T19:31:40.422Z,98.73
2022-10-02T19:33:42.013Z,98.79
2022-10-02T19:35:43.210Z,98.88
2022-10-02T19:37:44.586Z,98.81
2022-10-02T19:41:47.079Z,98.77
2022-10-02T19:43:48.980Z,98.84
2022-10-02T19:45:50.417Z,98.8
2022-10-02T19:47:51.412Z,98.79
2022-10-02T19:49:53.101Z,98.82
2022-10-02T19:51:54.388Z,98.97
2022-10-02T19:53:55.328Z,98.95
2022-10-02T19:55:57.130Z,98.94
2022-10-02T19:57:58.651Z,98.98
2022-10-02T20:00:00.119Z,98.97
2022-10-02T20:02:01.507Z,98.95
2022-10-02T20:04:02.538Z,98.93
2022-10-02T20:06:03.770Z,98.94
2022-10-02T20:08:06.899Z,99.04
2022-10-02T20:10:06.324Z,99.01
2022-10-02T20:12:07.490Z,99.03
2022-10-02T20:14:09.409Z,99.03
2022-10-02T20:14:53.311Z,99
2022-10-02T20:16:54.462Z,99.01
2022-10-02T20:18:56.075Z,99.04
2022-10-02T20:20:57.290Z,99.04
2022-10-02T20:22:58.734Z,99.07
2022-10-02T20:25:00.553Z,99.08
2022-10-02T20:27:01.678Z,99.08
2022-10-02T20:29:02.875Z,99.13
2022-10-02T20:31:04.494Z,99.14
2022-10-02T20:33:05.655Z,99.19
2022-10-02T20:35:07.578Z,99.21
2022-10-02T20:37:08.874Z,99.17
2022-10-02T20:39:10.117Z,99.16
2022-10-02T20:41:11.786Z,99.18
2022-10-02T20:43:13.620Z,99.16
2022-10-02T20:45:15.198Z,99.18
2022-10-02T20:47:16.175Z,99.16
2022-10-02T20:49:17.684Z,99.18
2022-10-02T20:51:18.785Z,99.16
2022-10-02T20:53:20.493Z,99.17
2022-10-02T20:55:21.642Z,99.19
2022-10-02T20:57:29.833Z,99.3
2022-10-02T21:01:26.831Z,99.34
2022-10-02T21:03:28.383Z,99.38
2022-10-02T21:07:31.216Z,99.37
2022-10-02T21:09:32.235Z,99.36
2022-10-02T21:11:33.619Z,99.34
2022-10-02T21:13:35.396Z,99.34
2022-10-02T21:17:38.092Z,99.35
2022-10-02T21:19:39.774Z,99.34
2022-10-02T21:21:41.638Z,99.34
2022-10-02T21:23:42.953Z,99.36
2022-10-02T21:25:44.367Z,99.35
2022-10-02T21:27:45.832Z,99.35
2022-10-02T21:29:47.164Z,99.35
2022-10-02T21:31:48.559Z,99.34
2022-10-02T21:33:50.029Z,99.34
2022-10-02T21:35:51.275Z,99.36
2022-10-02T21:37:53.159Z,99.36
2022-10-02T21:39:55.006Z,99.36
2022-10-02T21:41:56.106Z,99.41
2022-10-02T21:43:57.530Z,99.42
2022-10-02T21:45:59.217Z,99.43
2022-10-02T21:50:01.936Z,99.38
2022-10-02T21:52:03.253Z,99.41
2022-10-02T21:54:04.577Z,99.4
2022-10-02T21:56:06.391Z,99.39
2022-10-02T22:00:18.248Z,99.36
2022-10-02T22:02:11.082Z,99.37
2022-10-02T22:04:12.216Z,99.4
2022-10-02T22:06:13.760Z,99.41
2022-10-02T22:08:14.923Z,99.4
2022-10-02T22:10:16.252Z,99.36
2022-10-02T22:12:17.620Z,99.4
2022-10-02T22:14:18.586Z,99.36
2022-10-02T22:16:20.131Z,99.39
2022-10-02T22:18:21.126Z,99.38
2022-10-02T22:20:22.868Z,99.41
2022-10-02T22:22:24.005Z,99.43
2022-10-02T22:24:25.241Z,99.46
2022-10-02T22:26:26.509Z,99.48
2022-10-02T22:28:28.153Z,99.51
2022-10-02T22:30:29.818Z,99.53
2022-10-02T22:32:31.441Z,99.54
2022-10-02T22:34:32.881Z,99.51
2022-10-02T22:36:34.280Z,99.51
2022-10-02T22:38:35.723Z,99.5
2022-10-02T22:42:38.288Z,99.49
2022-10-02T22:44:39.683Z,99.48
2022-10-02T22:46:41.587Z,99.52
2022-10-02T22:48:43.116Z,99.51
2022-10-02T22:50:44.263Z,99.54
2022-10-02T22:52:45.239Z,99.51
2022-10-02T22:54:46.652Z,99.47
2022-10-02T22:56:48.422Z,99.5
2022-10-02T22:58:50.294Z,99.53
2022-10-02T23:00:52.037Z,99.52
2022-10-02T23:02:53.527Z,99.51
2022-10-02T23:04:54.620Z,99.5
2022-10-02T23:06:55.638Z,99.47
2022-10-02T23:08:57.527Z,99.47
2022-10-02T23:10:58.731Z,99.44
2022-10-02T23:13:00.179Z,99.44
2022-10-02T23:17:03.174Z,99.47
2022-10-02T23:19:04.949Z,99.46
2022-10-02T23:21:06.540Z,99.53
2022-10-02T23:23:08.017Z,99.54
2022-10-02T23:27:10.806Z,99.55
2022-10-02T23:29:12.399Z,99.57
2022-10-02T23:31:14.374Z,99.58
2022-10-02T23:33:15.956Z,99.57
2022-10-02T23:35:17.332Z,99.6
2022-10-02T23:37:18.288Z,99.6
2022-10-02T23:39:19.687Z,99.58
2022-10-02T23:41:21.297Z,99.59
2022-10-02T23:43:23.204Z,99.58
2022-10-02T23:45:25.098Z,99.57
2022-10-02T23:47:26.732Z,99.56
2022-10-02T23:49:28.367Z,99.56
2022-10-02T23:51:29.292Z,99.54
2022-10-02T23:53:30.704Z,99.55
2022-10-02T23:55:32.350Z,99.56
2022-10-02T23:57:34.143Z,99.57
2022-10-02T23:59:35.209Z,99.55
